CheckWX is a tool to help pilots better visualize weather data.  It is not intended as a substitute for an official pre-flight weather briefing.

00:35:25 UTC

EFIV METAR
Ivalo Airport
Ivalo, Finland
Current

15 mins ago

EFIV 190020Z AUTO 24003KT 210V300 CAVOK M01/M05 Q1027
Observed
Apr-19 @ 00:20 UTC
Wind
  • 240° at 3 KTS
Visibility
10,000+ meters
Flight Rules
VFR
Cloud Levels
  • Clear skies
Temperature
-1°C / 30°F
Dewpoint
-5°C / 23°F
Humidity
75%
Altimeter
30.32" Hg
Pressure
1026.92 hPa
Previous

45 mins ago

EFIV 182350Z AUTO VRB02KT CAVOK M03/M06 Q1027
Observed
Apr-18 @ 23:50 UTC
Wind
  • Variable at 2 KTS
Visibility
10,000+ meters
Flight Rules
VFR
Cloud Levels
  • Clear skies
Temperature
-3°C / 27°F
Dewpoint
-6°C / 21°F
Humidity
80%
Altimeter
30.32" Hg
Pressure
1026.92 hPa
Previous

1 hour ago

EFIV 182320Z AUTO VRB02KT CAVOK M02/M05 Q1027
Observed
Apr-18 @ 23:20 UTC
Wind
  • Variable at 2 KTS
Visibility
10,000+ meters
Flight Rules
VFR
Cloud Levels
  • Clear skies
Temperature
-2°C / 28°F
Dewpoint
-5°C / 23°F
Humidity
80%
Altimeter
30.32" Hg
Pressure
1026.92 hPa